Priargunsk, Russia
Current Conditions -  °F | °C
As of 4:00 PM on Friday 24 Oct 2014 (Local Time) from UIAA Reporting Station
Overcast Overcast  
Wind Chill: 37°   Ceiling: 10000
Heat Index: 37°   Visibility: 6mi
Dew Point: 25°   Wind: 2mph
Humidity: 60%   Direction: NA
Pressure: 29.71"   Gusts: NA
Location:  50.35°N, 119.1°E
Report Text: UIAA 240700Z VRB01MPS 9999 FEW050 OVC100 03/M04 Q1006 NOSIG RMKQFE696 29CLRD70
Loading
Personal Weather Stations






























Interactive Weather Map
Tropical Storm Tracking
New forecast layout! Learn more

10-Day Weather Forecast

Advertisements
Track Severe Weather on mobile